createdAt,value
2022-09-14T00:01:26.165Z,98.79
2022-09-14T00:03:55.376Z,98.75
2022-09-14T00:06:22.736Z,98.92
2022-09-14T00:08:54.523Z,98.97
2022-09-14T00:11:23.909Z,99.77
2022-09-14T00:13:50.938Z,99.73
2022-09-14T00:16:21.109Z,100.00
2022-09-14T00:18:56.885Z,100.00
2022-09-14T00:21:24.197Z,100.00
2022-09-14T00:23:51.064Z,100.00
2022-09-14T00:26:20.607Z,100.00
2022-09-14T00:28:50.311Z,100.00
2022-09-14T00:31:20.402Z,100.00
2022-09-14T00:33:48.510Z,100.00
2022-09-14T00:36:27.373Z,100.00
2022-09-14T00:38:56.663Z,100.00
2022-09-14T00:41:25.856Z,100.00
2022-09-14T00:44:08.256Z,100.00
2022-09-14T00:46:39.162Z,100.00
2022-09-14T00:49:11.420Z,100.00
2022-09-14T00:51:41.957Z,100.00
2022-09-14T00:54:33.601Z,100.00
2022-09-14T00:57:02.770Z,100.00
2022-09-14T00:59:33.050Z,100.00
2022-09-14T01:02:02.772Z,100.00
2022-09-14T01:04:29.429Z,100.00
2022-09-14T01:07:08.565Z,100.00
2022-09-14T01:09:38.545Z,100.00
2022-09-14T01:12:26.641Z,100.00
2022-09-14T01:15:00.054Z,100.00
2022-09-14T01:18:10.070Z,100.00
2022-09-14T01:20:51.884Z,100.00
2022-09-14T01:23:34.386Z,100.00
2022-09-14T01:26:08.319Z,100.00
2022-09-14T01:28:46.915Z,100.00
2022-09-14T01:31:29.378Z,100.00
2022-09-14T01:34:08.650Z,100.00
2022-09-14T01:36:39.459Z,100.00
2022-09-14T01:39:07.414Z,100.00
2022-09-14T01:41:38.015Z,100.00
2022-09-14T01:44:31.482Z,100.00
2022-09-14T01:47:09.032Z,100.00
2022-09-14T01:49:52.450Z,100.00
2022-09-14T01:52:25.911Z,100.00
2022-09-14T01:55:10.280Z,100.00
2022-09-14T01:57:52.205Z,100.00
2022-09-14T02:00:21.469Z,100.00
2022-09-14T02:02:58.810Z,100.00
2022-09-14T02:05:37.474Z,100.00
2022-09-14T02:08:04.510Z,100.00
2022-09-14T02:10:33.796Z,100.00
2022-09-14T02:13:00.634Z,100.00
2022-09-14T02:15:27.753Z,100.00
2022-09-14T02:17:54.726Z,100.00
2022-09-14T02:20:41.146Z,100.00
2022-09-14T02:23:35.660Z,100.00
2022-09-14T02:26:02.240Z,100.00
2022-09-14T02:28:28.901Z,100.00
2022-09-14T02:31:17.635Z,100.00
2022-09-14T02:33:59.428Z,100.00
2022-09-14T02:36:41.785Z,100.00
2022-09-14T02:39:26.813Z,100.00
2022-09-14T02:42:12.317Z,100.00
2022-09-14T02:45:04.902Z,100.00
2022-09-14T02:47:42.799Z,100.00
2022-09-14T02:50:40.318Z,100.00
2022-09-14T02:53:16.989Z,100.00
2022-09-14T02:55:48.237Z,100.00
2022-09-14T02:58:16.304Z,100.00
2022-09-14T03:00:45.391Z,100.00
2022-09-14T03:03:15.052Z,100.00
2022-09-14T03:05:42.001Z,100.00
2022-09-14T03:08:10.461Z,100.00
2022-09-14T03:10:37.422Z,100.00
2022-09-14T03:13:04.238Z,100.00
2022-09-14T03:15:31.151Z,100.00
2022-09-14T03:17:57.809Z,100.00
2022-09-14T03:20:27.122Z,100.00
2022-09-14T03:22:54.511Z,100.00
2022-09-14T03:25:23.037Z,100.00
2022-09-14T03:27:51.025Z,100.00
2022-09-14T03:30:18.468Z,100.00
2022-09-14T03:32:45.693Z,100.00
2022-09-14T03:35:13.187Z,100.00
2022-09-14T03:37:41.458Z,100.00
2022-09-14T03:40:09.522Z,100.00
2022-09-14T03:42:37.076Z,100.00
2022-09-14T03:45:03.974Z,100.00
2022-09-14T03:47:31.248Z,100.00
2022-09-14T03:49:57.988Z,100.00
2022-09-14T03:52:24.622Z,100.00
2022-09-14T03:54:51.250Z,100.00
2022-09-14T03:57:18.065Z,100.00
2022-09-14T03:59:45.624Z,100.00
2022-09-14T04:02:13.710Z,100.00
2022-09-14T04:04:40.273Z,100.00
2022-09-14T04:07:07.403Z,100.00
2022-09-14T04:09:34.073Z,100.00
2022-09-14T04:12:03.184Z,100.00
2022-09-14T04:14:29.717Z,100.00
2022-09-14T04:16:56.303Z,100.00
2022-09-14T04:19:22.873Z,100.00
2022-09-14T04:21:49.460Z,100.00
2022-09-14T04:24:16.533Z,100.00
2022-09-14T04:26:45.007Z,100.00
2022-09-14T04:29:12.750Z,100.00
2022-09-14T04:31:40.463Z,100.00
2022-09-14T04:34:07.184Z,100.00
2022-09-14T04:36:33.829Z,100.00
2022-09-14T04:39:02.791Z,100.00
2022-09-14T04:41:32.114Z,100.00
2022-09-14T04:44:00.211Z,100.00
2022-09-14T04:46:34.130Z,100.00
2022-09-14T04:49:03.163Z,100.00
2022-09-14T04:51:32.507Z,100.00
2022-09-14T04:54:02.534Z,100.00
2022-09-14T04:56:31.904Z,100.00
2022-09-14T04:59:01.761Z,100.00
2022-09-14T05:01:30.870Z,100.00
2022-09-14T05:03:58.609Z,100.00
2022-09-14T05:06:27.975Z,100.00
2022-09-14T05:08:56.214Z,100.00
2022-09-14T05:11:25.133Z,100.00
2022-09-14T05:13:51.957Z,100.00
2022-09-14T05:16:21.645Z,100.00
2022-09-14T05:19:01.204Z,100.00
2022-09-14T05:21:29.453Z,100.00
2022-09-14T05:24:01.658Z,100.00
2022-09-14T05:26:30.820Z,100.00
2022-09-14T05:28:59.363Z,100.00
2022-09-14T05:31:27.892Z,100.00
2022-09-14T05:33:54.665Z,100.00
2022-09-14T05:36:21.506Z,100.00
2022-09-14T05:38:51.812Z,100.00
2022-09-14T05:41:21.271Z,100.00
2022-09-14T05:43:48.337Z,100.00
2022-09-14T05:46:17.628Z,100.00
2022-09-14T05:48:44.537Z,100.00
2022-09-14T05:51:16.168Z,100.00
2022-09-14T05:53:50.700Z,100.00
2022-09-14T05:56:18.785Z,100.00
2022-09-14T05:58:45.613Z,100.00
2022-09-14T06:01:14.082Z,100.00
2022-09-14T06:03:42.109Z,100.00
2022-09-14T06:06:10.398Z,100.00
2022-09-14T06:08:37.673Z,100.00
2022-09-14T06:11:09.879Z,100.00
2022-09-14T06:13:37.612Z,100.00
2022-09-14T06:16:05.480Z,100.00
2022-09-14T06:18:33.457Z,100.00
2022-09-14T06:21:00.937Z,100.00
2022-09-14T06:23:28.601Z,100.00
2022-09-14T06:25:56.595Z,100.00
2022-09-14T06:28:24.239Z,100.00
2022-09-14T06:30:51.741Z,100.00
2022-09-14T06:33:19.357Z,100.00
2022-09-14T06:36:03.005Z,100.00
2022-09-14T06:38:29.923Z,100.00
2022-09-14T06:40:58.481Z,100.00
2022-09-14T06:43:31.582Z,100.00
2022-09-14T06:46:04.188Z,100.00
2022-09-14T06:48:34.290Z,100.00
2022-09-14T06:51:10.355Z,100.00
2022-09-14T06:53:36.899Z,100.00
2022-09-14T06:56:03.565Z,100.00
2022-09-14T06:58:30.081Z,100.00
2022-09-14T07:01:01.933Z,100.00
2022-09-14T07:03:28.521Z,100.00
2022-09-14T07:06:02.633Z,100.00
2022-09-14T07:08:29.442Z,100.00
2022-09-14T07:10:57.857Z,100.00
2022-09-14T07:13:25.277Z,100.00
2022-09-14T07:15:52.001Z,100.00
2022-09-14T07:18:18.869Z,100.00
2022-09-14T07:20:45.450Z,100.00
2022-09-14T07:23:13.459Z,100.00
2022-09-14T07:25:40.457Z,100.00
2022-09-14T07:28:07.246Z,100.00
2022-09-14T07:30:38.509Z,100.00
2022-09-14T07:33:05.745Z,100.00
2022-09-14T07:35:32.756Z,100.00
2022-09-14T07:37:59.320Z,100.00
2022-09-14T07:40:26.978Z,100.00
2022-09-14T07:42:57.435Z,100.00
2022-09-14T07:45:24.718Z,100.00
2022-09-14T07:47:51.224Z,100.00
2022-09-14T07:50:18.154Z,100.00
2022-09-14T07:52:44.776Z,100.00
2022-09-14T07:55:12.391Z,100.00
2022-09-14T07:57:55.530Z,100.00
2022-09-14T08:00:23.126Z,100.00
2022-09-14T08:02:55.113Z,100.00
2022-09-14T08:05:22.244Z,100.00
2022-09-14T08:07:53.668Z,100.00
2022-09-14T08:10:20.291Z,100.00
2022-09-14T08:12:51.239Z,100.00
2022-09-14T08:15:19.622Z,100.00
2022-09-14T08:17:46.687Z,100.00
2022-09-14T08:20:13.805Z,100.00
2022-09-14T08:22:40.338Z,100.00
2022-09-14T08:25:07.147Z,100.00
2022-09-14T08:27:33.742Z,100.00
2022-09-14T08:30:00.314Z,99.43
2022-09-14T08:32:26.902Z,98.80
2022-09-14T08:34:53.421Z,99.25
2022-09-14T08:37:19.893Z,98.89
2022-09-14T08:39:51.431Z,98.47
2022-09-14T08:42:20.785Z,98.71
2022-09-14T08:44:53.316Z,96.87
2022-09-14T08:47:34.325Z,97.72
2022-09-14T08:50:14.244Z,97.91
2022-09-14T08:52:46.871Z,97.66
2022-09-14T08:55:38.690Z,97.06
2022-09-14T08:58:17.467Z,96.48
2022-09-14T09:01:21.615Z,96.06
2022-09-14T09:04:25.617Z,95.57
2022-09-14T09:07:24.548Z,94.57
2022-09-14T09:09:54.028Z,94.10
2022-09-14T09:12:25.021Z,93.23
2022-09-14T09:14:57.908Z,94.13
2022-09-14T09:17:29.961Z,93.35
2022-09-14T09:19:59.508Z,92.66
2022-09-14T09:22:29.998Z,92.42
2022-09-14T09:24:58.469Z,92.38
2022-09-14T09:27:27.681Z,92.68
2022-09-14T09:29:54.310Z,92.43
2022-09-14T09:32:24.067Z,90.04
2022-09-14T09:34:51.641Z,90.01
2022-09-14T09:37:43.708Z,88.62
2022-09-14T09:40:20.790Z,87.93
2022-09-14T09:43:05.346Z,85.94
2022-09-14T09:45:54.505Z,83.40
2022-09-14T09:48:27.094Z,83.63
2022-09-14T09:51:04.914Z,83.19
2022-09-14T09:53:34.123Z,84.16
2022-09-14T09:56:01.309Z,84.68
2022-09-14T09:58:38.638Z,84.25
2022-09-14T10:01:12.404Z,83.94
2022-09-14T10:03:40.665Z,82.72
2022-09-14T10:06:10.873Z,82.94
2022-09-14T10:08:46.019Z,82.61
2022-09-14T10:11:46.061Z,82.17
2022-09-14T10:14:47.986Z,82.11
2022-09-14T10:17:20.352Z,80.79
2022-09-14T10:19:49.508Z,78.98
2022-09-14T10:22:34.372Z,77.62
2022-09-14T10:25:14.366Z,78.58
2022-09-14T10:27:48.495Z,78.84
2022-09-14T10:30:20.189Z,77.48
2022-09-14T10:32:57.304Z,76.74
2022-09-14T10:35:40.877Z,76.55
2022-09-14T10:38:10.409Z,76.67
2022-09-14T10:40:43.926Z,76.26
2022-09-14T10:43:10.402Z,75.93
2022-09-14T10:46:02.040Z,74.41
2022-09-14T10:49:10.108Z,74.40
2022-09-14T10:51:57.681Z,74.86
2022-09-14T10:54:37.110Z,73.04
2022-09-14T10:57:23.949Z,72.65
2022-09-14T10:59:55.367Z,72.83
2022-09-14T11:03:03.640Z,73.38
2022-09-14T11:05:39.521Z,74.19
2022-09-14T11:08:10.095Z,74.39
2022-09-14T11:11:11.361Z,75.07
2022-09-14T11:13:59.093Z,74.15
2022-09-14T11:16:47.583Z,73.45
2022-09-14T11:19:49.469Z,73.88
2022-09-14T11:22:33.719Z,72.96
2022-09-14T11:25:39.089Z,71.50
2022-09-14T11:28:14.226Z,73.16
2022-09-14T11:30:45.546Z,71.97
2022-09-14T11:33:31.263Z,72.65
2022-09-14T11:36:09.520Z,70.50
2022-09-14T11:38:48.670Z,71.21
2022-09-14T11:41:23.514Z,71.99
2022-09-14T11:43:59.400Z,71.81
2022-09-14T11:46:38.755Z,72.21
2022-09-14T11:49:44.304Z,69.41
2022-09-14T11:52:24.968Z,68.95
2022-09-14T11:54:52.500Z,69.54
2022-09-14T11:57:23.058Z,70.25
2022-09-14T11:59:54.008Z,71.26
2022-09-14T12:02:23.783Z,72.32
2022-09-14T12:05:16.787Z,71.35
2022-09-14T12:07:43.910Z,71.53
2022-09-14T12:10:13.508Z,72.36
2022-09-14T12:12:42.808Z,70.96
2022-09-14T12:15:24.708Z,71.47
2022-09-14T12:17:53.417Z,71.92
2022-09-14T12:20:20.452Z,72.29
2022-09-14T12:22:50.260Z,72.99
2022-09-14T12:25:23.046Z,72.97
2022-09-14T12:27:50.224Z,72.38
2022-09-14T12:30:41.508Z,74.00
2022-09-14T12:33:33.310Z,73.26
2022-09-14T12:36:05.323Z,73.09
2022-09-14T12:38:31.832Z,72.08
2022-09-14T12:41:08.440Z,72.10
2022-09-14T12:43:34.967Z,72.61
2022-09-14T12:46:05.939Z,72.97
2022-09-14T12:48:44.713Z,73.51
2022-09-14T12:51:26.756Z,73.28
2022-09-14T12:54:08.402Z,72.30
2022-09-14T12:56:52.312Z,71.96
2022-09-14T12:59:38.028Z,72.59
2022-09-14T13:02:34.437Z,72.25
2022-09-14T13:05:03.552Z,71.77
2022-09-14T13:07:34.108Z,71.75
2022-09-14T13:10:02.460Z,72.03
2022-09-14T13:12:39.893Z,72.01
2022-09-14T13:15:17.000Z,72.18
2022-09-14T13:18:05.353Z,72.75
2022-09-14T13:20:34.890Z,73.64
2022-09-14T13:23:19.096Z,73.06
2022-09-14T13:25:45.845Z,73.22
2022-09-14T13:28:19.161Z,73.03
2022-09-14T13:30:55.555Z,72.87
2022-09-14T13:33:22.598Z,73.06
2022-09-14T13:35:54.164Z,73.60
2022-09-14T13:38:25.211Z,73.89
2022-09-14T13:40:55.246Z,74.62
2022-09-14T13:43:22.890Z,75.13
2022-09-14T13:45:51.403Z,75.18
2022-09-14T13:48:19.725Z,74.48
2022-09-14T13:50:51.746Z,73.91
2022-09-14T13:53:37.213Z,73.70
2022-09-14T13:56:24.012Z,74.32
2022-09-14T13:59:14.590Z,74.54
2022-09-14T14:01:59.367Z,73.44
2022-09-14T14:04:35.698Z,73.81
2022-09-14T14:07:19.590Z,74.53
2022-09-14T14:09:54.113Z,74.70
2022-09-14T14:12:30.617Z,74.89
2022-09-14T14:15:00.745Z,73.25
2022-09-14T14:17:30.229Z,72.81
2022-09-14T14:19:58.745Z,72.99
2022-09-14T14:22:32.549Z,73.59
2022-09-14T14:25:13.247Z,74.14
2022-09-14T14:27:46.715Z,74.86
2022-09-14T14:30:21.304Z,73.81
2022-09-14T14:32:53.194Z,74.12
2022-09-14T14:35:22.787Z,74.17
2022-09-14T14:37:50.544Z,73.63
2022-09-14T14:40:18.734Z,73.31
2022-09-14T14:42:45.806Z,74.29
2022-09-14T14:45:19.059Z,74.40
2022-09-14T14:47:48.128Z,74.65
2022-09-14T14:50:17.088Z,74.15
2022-09-14T14:52:43.915Z,73.24
2022-09-14T14:55:10.780Z,73.92
2022-09-14T14:57:38.857Z,74.88
2022-09-14T15:00:13.070Z,74.38
2022-09-14T15:02:39.608Z,74.76
2022-09-14T15:05:06.768Z,74.84
2022-09-14T15:07:37.506Z,74.86
2022-09-14T15:10:06.281Z,75.19
2022-09-14T15:12:34.040Z,75.26
2022-09-14T15:15:01.279Z,74.92
2022-09-14T15:17:28.165Z,73.87
2022-09-14T15:19:54.766Z,74.10
2022-09-14T15:22:22.106Z,74.52
2022-09-14T15:24:48.695Z,74.81
2022-09-14T15:27:15.396Z,75.15
2022-09-14T15:29:41.972Z,75.17
2022-09-14T15:32:08.594Z,74.98
2022-09-14T15:34:35.230Z,74.79
2022-09-14T15:37:01.841Z,75.25
2022-09-14T15:39:31.424Z,75.42
2022-09-14T15:41:58.832Z,75.18
2022-09-14T15:44:25.750Z,75.23
2022-09-14T15:46:52.923Z,75.53
2022-09-14T15:49:21.852Z,76.09
2022-09-14T15:51:50.707Z,76.53
2022-09-14T15:54:19.100Z,75.44
2022-09-14T15:56:50.829Z,76.08
2022-09-14T15:59:18.856Z,76.00
2022-09-14T16:01:46.541Z,76.21
2022-09-14T16:04:13.659Z,76.12
2022-09-14T16:06:40.656Z,75.89
2022-09-14T16:09:09.372Z,75.91
2022-09-14T16:11:37.245Z,76.09
2022-09-14T16:14:07.613Z,76.46
2022-09-14T16:16:35.688Z,76.49
2022-09-14T16:19:14.457Z,75.56
2022-09-14T16:21:42.144Z,76.13
2022-09-14T16:24:13.305Z,76.39
2022-09-14T16:26:40.203Z,76.68
2022-09-14T16:29:09.456Z,76.18
2022-09-14T16:31:37.878Z,76.43
2022-09-14T16:34:12.814Z,76.65
2022-09-14T16:36:40.697Z,76.30
2022-09-14T16:39:11.776Z,76.36
2022-09-14T16:41:40.410Z,76.03
2022-09-14T16:44:07.893Z,76.19
2022-09-14T16:46:37.407Z,75.91
2022-09-14T16:49:06.257Z,76.58
2022-09-14T16:51:33.505Z,76.56
2022-09-14T16:54:00.754Z,76.13
2022-09-14T16:56:57.980Z,76.45
2022-09-14T16:59:25.548Z,76.58
2022-09-14T17:01:55.007Z,77.17
2022-09-14T17:04:23.487Z,77.59
2022-09-14T17:06:51.470Z,78.03
2022-09-14T17:09:21.506Z,77.81
2022-09-14T17:11:48.686Z,77.82
2022-09-14T17:14:21.753Z,77.94
2022-09-14T17:16:48.726Z,77.71
2022-09-14T17:19:15.752Z,78.11
2022-09-14T17:21:44.697Z,78.39
2022-09-14T17:24:12.687Z,78.27
2022-09-14T17:26:40.345Z,78.84
2022-09-14T17:29:07.540Z,79.74
2022-09-14T17:31:37.984Z,80.68
2022-09-14T17:34:06.928Z,81.10
2022-09-14T17:36:34.737Z,81.59
2022-09-14T17:39:07.952Z,81.82
2022-09-14T17:41:38.913Z,82.39
2022-09-14T17:44:07.749Z,82.47
2022-09-14T17:46:35.024Z,82.51
2022-09-14T17:49:04.533Z,82.88
2022-09-14T17:51:32.402Z,83.62
2022-09-14T17:54:00.895Z,84.23
2022-09-14T17:56:28.837Z,84.94
2022-09-14T17:59:05.489Z,85.58
2022-09-14T18:01:33.386Z,85.80
2022-09-14T18:04:03.690Z,86.11
2022-09-14T18:06:34.293Z,86.64
2022-09-14T18:09:04.783Z,86.95
2022-09-14T18:11:32.017Z,86.73
2022-09-14T18:13:59.325Z,86.88
2022-09-14T18:16:27.341Z,87.02
2022-09-14T18:18:54.689Z,87.25
2022-09-14T18:21:21.698Z,87.62
2022-09-14T18:23:51.014Z,87.80
2022-09-14T18:26:18.286Z,87.86
2022-09-14T18:28:46.415Z,87.83
2022-09-14T18:31:15.946Z,88.19
2022-09-14T18:33:52.037Z,88.52
2022-09-14T18:36:19.662Z,89.21
2022-09-14T18:38:48.436Z,89.93
2022-09-14T18:41:16.901Z,90.46
2022-09-14T18:43:49.805Z,90.61
2022-09-14T18:46:17.893Z,90.71
2022-09-14T18:48:45.406Z,90.70
2022-09-14T18:51:13.908Z,90.79
2022-09-14T18:53:40.849Z,90.67
2022-09-14T18:56:10.647Z,90.93
2022-09-14T18:58:43.561Z,91.37
2022-09-14T19:01:11.448Z,91.85
2022-09-14T19:03:40.156Z,91.91
2022-09-14T19:06:09.561Z,92.27
2022-09-14T19:08:36.706Z,92.65
2022-09-14T19:11:09.318Z,92.62
2022-09-14T19:13:36.431Z,92.43
2022-09-14T19:16:11.490Z,92.68
2022-09-14T19:18:39.153Z,92.59
2022-09-14T19:21:22.781Z,92.93
2022-09-14T19:24:17.435Z,93.13
2022-09-14T19:26:50.433Z,92.99
2022-09-14T19:29:20.385Z,92.88
2022-09-14T19:31:50.960Z,92.50
2022-09-14T19:34:23.104Z,92.60
2022-09-14T19:36:50.438Z,92.64
2022-09-14T19:39:17.089Z,92.45
2022-09-14T19:41:44.263Z,92.28
2022-09-14T19:44:11.468Z,91.94
2022-09-14T19:46:39.390Z,91.83
2022-09-14T19:49:11.585Z,91.50
2022-09-14T19:51:38.153Z,91.63
2022-09-14T19:54:05.517Z,91.52
2022-09-14T19:56:34.075Z,91.31
2022-09-14T19:59:06.363Z,91.86
2022-09-14T20:01:36.124Z,92.02
2022-09-14T20:04:07.351Z,92.23
2022-09-14T20:06:37.897Z,92.37
2022-09-14T20:09:08.212Z,92.25
2022-09-14T20:11:38.197Z,92.97
2022-09-14T20:14:06.957Z,92.75
2022-09-14T20:16:39.086Z,92.79
2022-09-14T20:19:17.336Z,92.50
2022-09-14T20:21:45.569Z,92.40
2022-09-14T20:24:20.882Z,92.90
2022-09-14T20:26:49.441Z,92.91
2022-09-14T20:29:17.979Z,92.74
2022-09-14T20:31:45.308Z,92.94
2022-09-14T20:34:12.254Z,92.87
2022-09-14T20:36:39.248Z,92.79
2022-09-14T20:39:06.052Z,92.90
2022-09-14T20:41:34.770Z,92.81
2022-09-14T20:44:02.725Z,93.16
2022-09-14T20:46:36.040Z,92.77
2022-09-14T20:49:04.491Z,93.03
2022-09-14T20:51:32.472Z,93.03
2022-09-14T20:53:59.068Z,93.13
2022-09-14T20:56:33.244Z,92.95
2022-09-14T20:59:01.917Z,92.96
2022-09-14T21:01:31.140Z,93.20
2022-09-14T21:04:08.094Z,93.32
2022-09-14T21:06:40.419Z,93.57
2022-09-14T21:09:08.985Z,92.74
2022-09-14T21:11:37.752Z,93.09
2022-09-14T21:14:05.716Z,92.98
2022-09-14T21:16:38.256Z,93.35
2022-09-14T21:19:08.798Z,93.42
2022-09-14T21:21:35.513Z,93.47
2022-09-14T21:24:03.146Z,93.43
2022-09-14T21:26:33.801Z,93.64
2022-09-14T21:29:03.925Z,93.47
2022-09-14T21:31:30.881Z,93.38
2022-09-14T21:33:59.074Z,92.88
2022-09-14T21:36:31.867Z,92.94
2022-09-14T21:39:00.151Z,92.64
2022-09-14T21:41:29.140Z,92.67
2022-09-14T21:43:57.233Z,92.35
2022-09-14T21:46:24.720Z,92.04
2022-09-14T21:48:52.483Z,91.88
2022-09-14T21:51:28.437Z,91.68
2022-09-14T21:54:06.653Z,91.69
2022-09-14T21:56:36.856Z,91.84
2022-09-14T21:59:09.405Z,92.23
2022-09-14T22:01:36.265Z,92.05
2022-09-14T22:04:04.324Z,92.24
2022-09-14T22:06:32.352Z,92.44
2022-09-14T22:09:00.888Z,92.67
2022-09-14T22:11:31.131Z,92.68
2022-09-14T22:14:05.395Z,93.35
2022-09-14T22:16:34.609Z,93.04
2022-09-14T22:19:04.325Z,93.24
2022-09-14T22:21:35.166Z,93.63
2022-09-14T22:24:04.776Z,93.56
2022-09-14T22:26:33.858Z,93.23
2022-09-14T22:29:00.864Z,93.27
2022-09-14T22:31:28.837Z,93.37
2022-09-14T22:33:59.166Z,93.30
2022-09-14T22:36:26.778Z,93.62
2022-09-14T22:38:56.607Z,93.52
2022-09-14T22:41:23.845Z,94.03
2022-09-14T22:43:50.430Z,94.16
2022-09-14T22:46:18.166Z,94.13
2022-09-14T22:48:45.548Z,94.14
2022-09-14T22:51:14.788Z,94.38
2022-09-14T22:53:42.842Z,94.37
2022-09-14T22:56:15.746Z,94.66
2022-09-14T22:58:42.603Z,94.92
2022-09-14T23:01:22.506Z,95.11
2022-09-14T23:03:53.525Z,95.19
2022-09-14T23:06:20.069Z,95.66
2022-09-14T23:08:47.184Z,95.82
2022-09-14T23:11:13.742Z,96.43
2022-09-14T23:13:42.154Z,96.50
2022-09-14T23:16:15.289Z,96.86
2022-09-14T23:18:42.705Z,97.26
2022-09-14T23:21:09.993Z,97.00
2022-09-14T23:23:38.206Z,97.69
2022-09-14T23:26:10.101Z,98.10
2022-09-14T23:28:37.508Z,98.65
2022-09-14T23:31:05.683Z,98.64
2022-09-14T23:33:35.322Z,98.58
2022-09-14T23:36:02.056Z,99.02
2022-09-14T23:38:28.600Z,99.19
2022-09-14T23:40:55.300Z,98.89
2022-09-14T23:43:21.916Z,99.14
2022-09-14T23:45:48.818Z,99.53
2022-09-14T23:48:15.814Z,99.33
2022-09-14T23:50:42.945Z,99.72
2022-09-14T23:53:10.692Z,99.95
2022-09-14T23:55:37.226Z,100.00
2022-09-14T23:58:04.073Z,100.00
